sensor_id;sensor_type;location;lat;lon;timestamp;temperature;humidity
46758;DHT22;32509;47.750;-3.396;2023-06-14T00:01:46;20.40;99.90
46758;DHT22;32509;47.750;-3.396;2023-06-14T00:04:13;20.40;99.90
46758;DHT22;32509;47.750;-3.396;2023-06-14T00:06:39;20.40;99.90
46758;DHT22;32509;47.750;-3.396;2023-06-14T00:09:07;20.40;99.90
46758;DHT22;32509;47.750;-3.396;2023-06-14T00:11:34;20.40;99.90
46758;DHT22;32509;47.750;-3.396;2023-06-14T00:14:00;20.40;99.90
46758;DHT22;32509;47.750;-3.396;2023-06-14T00:16:25;20.30;99.90
46758;DHT22;32509;47.750;-3.396;2023-06-14T00:18:51;20.30;99.90
46758;DHT22;32509;47.750;-3.396;2023-06-14T00:21:17;20.30;99.90
46758;DHT22;32509;47.750;-3.396;2023-06-14T00:23:43;20.30;99.90
46758;DHT22;32509;47.750;-3.396;2023-06-14T00:26:09;20.30;99.90
46758;DHT22;32509;47.750;-3.396;2023-06-14T00:28:35;20.30;99.90
46758;DHT22;32509;47.750;-3.396;2023-06-14T00:31:00;20.30;99.90
46758;DHT22;32509;47.750;-3.396;2023-06-14T00:33:26;20.20;99.90
46758;DHT22;32509;47.750;-3.396;2023-06-14T00:35:52;20.20;99.90
46758;DHT22;32509;47.750;-3.396;2023-06-14T00:38:20;20.30;99.90
46758;DHT22;32509;47.750;-3.396;2023-06-14T00:40:46;20.20;99.90
46758;DHT22;32509;47.750;-3.396;2023-06-14T00:43:12;20.20;99.90
46758;DHT22;32509;47.750;-3.396;2023-06-14T00:45:38;20.20;99.90
46758;DHT22;32509;47.750;-3.396;2023-06-14T00:48:05;20.20;99.90
46758;DHT22;32509;47.750;-3.396;2023-06-14T00:50:33;20.10;99.90
46758;DHT22;32509;47.750;-3.396;2023-06-14T00:53:02;20.10;99.90
46758;DHT22;32509;47.750;-3.396;2023-06-14T00:55:28;20.00;99.90
46758;DHT22;32509;47.750;-3.396;2023-06-14T00:57:55;20.00;99.90
46758;DHT22;32509;47.750;-3.396;2023-06-14T01:00:21;20.10;99.90
46758;DHT22;32509;47.750;-3.396;2023-06-14T01:02:47;20.10;99.90
46758;DHT22;32509;47.750;-3.396;2023-06-14T01:05:15;20.10;99.90
46758;DHT22;32509;47.750;-3.396;2023-06-14T01:13:39;20.10;99.90
46758;DHT22;32509;47.750;-3.396;2023-06-14T01:16:07;20.00;99.90
46758;DHT22;32509;47.750;-3.396;2023-06-14T01:18:33;20.00;99.90
46758;DHT22;32509;47.750;-3.396;2023-06-14T01:21:00;20.00;99.90
46758;DHT22;32509;47.750;-3.396;2023-06-14T01:23:31;19.90;99.90
46758;DHT22;32509;47.750;-3.396;2023-06-14T01:25:59;19.90;99.90
46758;DHT22;32509;47.750;-3.396;2023-06-14T01:28:26;19.90;99.90
46758;DHT22;32509;47.750;-3.396;2023-06-14T01:30:59;19.90;99.90
46758;DHT22;32509;47.750;-3.396;2023-06-14T01:33:27;19.90;99.90
46758;DHT22;32509;47.750;-3.396;2023-06-14T01:35:54;19.90;99.90
46758;DHT22;32509;47.750;-3.396;2023-06-14T01:38:26;19.90;99.90
46758;DHT22;32509;47.750;-3.396;2023-06-14T01:40:54;19.90;99.90
46758;DHT22;32509;47.750;-3.396;2023-06-14T01:43:21;19.90;99.90
46758;DHT22;32509;47.750;-3.396;2023-06-14T01:45:48;19.80;99.90
46758;DHT22;32509;47.750;-3.396;2023-06-14T01:48:17;19.80;99.90
46758;DHT22;32509;47.750;-3.396;2023-06-14T01:50:43;19.80;99.90
46758;DHT22;32509;47.750;-3.396;2023-06-14T01:53:09;19.70;99.90
46758;DHT22;32509;47.750;-3.396;2023-06-14T01:55:35;19.70;99.90
46758;DHT22;32509;47.750;-3.396;2023-06-14T01:58:06;19.70;99.90
46758;DHT22;32509;47.750;-3.396;2023-06-14T02:00:32;19.70;99.90
46758;DHT22;32509;47.750;-3.396;2023-06-14T02:02:58;19.70;99.90
46758;DHT22;32509;47.750;-3.396;2023-06-14T02:05:24;19.80;99.90
46758;DHT22;32509;47.750;-3.396;2023-06-14T02:07:50;19.80;99.90
46758;DHT22;32509;47.750;-3.396;2023-06-14T02:10:16;19.70;99.90
46758;DHT22;32509;47.750;-3.396;2023-06-14T02:12:43;19.70;99.90
46758;DHT22;32509;47.750;-3.396;2023-06-14T02:15:09;19.70;99.90
46758;DHT22;32509;47.750;-3.396;2023-06-14T02:17:45;19.70;99.90
46758;DHT22;32509;47.750;-3.396;2023-06-14T02:20:13;19.70;99.90
46758;DHT22;32509;47.750;-3.396;2023-06-14T02:22:39;19.70;99.90
46758;DHT22;32509;47.750;-3.396;2023-06-14T02:25:04;19.60;99.90
46758;DHT22;32509;47.750;-3.396;2023-06-14T02:27:31;19.60;99.90
46758;DHT22;32509;47.750;-3.396;2023-06-14T02:29:57;19.60;99.90
46758;DHT22;32509;47.750;-3.396;2023-06-14T02:32:23;19.60;99.90
46758;DHT22;32509;47.750;-3.396;2023-06-14T02:34:49;19.50;99.90
46758;DHT22;32509;47.750;-3.396;2023-06-14T02:37:15;19.50;99.90
46758;DHT22;32509;47.750;-3.396;2023-06-14T02:39:41;19.50;99.90
46758;DHT22;32509;47.750;-3.396;2023-06-14T02:42:07;19.60;99.90
46758;DHT22;32509;47.750;-3.396;2023-06-14T02:44:33;19.50;99.90
46758;DHT22;32509;47.750;-3.396;2023-06-14T02:46:59;19.50;99.90
46758;DHT22;32509;47.750;-3.396;2023-06-14T02:49:26;19.50;99.90
46758;DHT22;32509;47.750;-3.396;2023-06-14T02:51:52;19.50;99.90
46758;DHT22;32509;47.750;-3.396;2023-06-14T02:54:18;19.60;99.90
46758;DHT22;32509;47.750;-3.396;2023-06-14T02:56:44;19.50;99.90
46758;DHT22;32509;47.750;-3.396;2023-06-14T02:59:10;19.50;99.90
46758;DHT22;32509;47.750;-3.396;2023-06-14T03:01:35;19.50;99.90
46758;DHT22;32509;47.750;-3.396;2023-06-14T03:04:07;19.50;99.90
46758;DHT22;32509;47.750;-3.396;2023-06-14T03:06:33;19.50;99.90
46758;DHT22;32509;47.750;-3.396;2023-06-14T03:09:00;19.50;99.90
46758;DHT22;32509;47.750;-3.396;2023-06-14T03:11:30;19.50;99.90
46758;DHT22;32509;47.750;-3.396;2023-06-14T03:13:55;19.50;99.90
46758;DHT22;32509;47.750;-3.396;2023-06-14T03:16:22;19.50;99.90
46758;DHT22;32509;47.750;-3.396;2023-06-14T03:18:52;19.40;99.90
46758;DHT22;32509;47.750;-3.396;2023-06-14T03:21:19;19.50;99.90
46758;DHT22;32509;47.750;-3.396;2023-06-14T03:23:46;19.40;99.90
46758;DHT22;32509;47.750;-3.396;2023-06-14T03:26:12;19.40;99.90
46758;DHT22;32509;47.750;-3.396;2023-06-14T03:28:44;19.40;99.90
46758;DHT22;32509;47.750;-3.396;2023-06-14T03:31:11;19.40;99.90
46758;DHT22;32509;47.750;-3.396;2023-06-14T03:33:36;19.40;99.90
46758;DHT22;32509;47.750;-3.396;2023-06-14T03:36:02;19.40;99.90
46758;DHT22;32509;47.750;-3.396;2023-06-14T03:38:28;19.40;99.90
46758;DHT22;32509;47.750;-3.396;2023-06-14T03:40:54;19.30;99.90
46758;DHT22;32509;47.750;-3.396;2023-06-14T03:43:20;19.30;99.90
46758;DHT22;32509;47.750;-3.396;2023-06-14T03:45:46;19.30;99.90
46758;DHT22;32509;47.750;-3.396;2023-06-14T03:48:12;19.40;99.90
46758;DHT22;32509;47.750;-3.396;2023-06-14T03:50:37;19.30;99.90
46758;DHT22;32509;47.750;-3.396;2023-06-14T03:53:08;19.30;99.90
46758;DHT22;32509;47.750;-3.396;2023-06-14T03:55:34;19.30;99.90
46758;DHT22;32509;47.750;-3.396;2023-06-14T03:58:00;19.30;99.90
46758;DHT22;32509;47.750;-3.396;2023-06-14T04:00:26;19.30;99.90
46758;DHT22;32509;47.750;-3.396;2023-06-14T04:02:52;19.30;99.90
46758;DHT22;32509;47.750;-3.396;2023-06-14T04:05:19;19.30;99.90
46758;DHT22;32509;47.750;-3.396;2023-06-14T04:07:46;19.20;99.90
46758;DHT22;32509;47.750;-3.396;2023-06-14T04:10:15;19.20;99.90
46758;DHT22;32509;47.750;-3.396;2023-06-14T04:12:41;19.30;99.90
46758;DHT22;32509;47.750;-3.396;2023-06-14T04:15:08;19.20;99.90
46758;DHT22;32509;47.750;-3.396;2023-06-14T04:17:37;19.30;99.90
46758;DHT22;32509;47.750;-3.396;2023-06-14T04:20:03;19.20;99.90
46758;DHT22;32509;47.750;-3.396;2023-06-14T04:22:31;19.30;99.90
46758;DHT22;32509;47.750;-3.396;2023-06-14T04:24:57;19.20;99.90
46758;DHT22;32509;47.750;-3.396;2023-06-14T04:27:25;19.20;99.90
46758;DHT22;32509;47.750;-3.396;2023-06-14T04:29:55;19.20;99.90
46758;DHT22;32509;47.750;-3.396;2023-06-14T04:32:26;19.10;99.90
46758;DHT22;32509;47.750;-3.396;2023-06-14T04:34:55;19.20;99.90
46758;DHT22;32509;47.750;-3.396;2023-06-14T04:37:21;19.20;99.90
46758;DHT22;32509;47.750;-3.396;2023-06-14T04:39:48;19.20;99.90
46758;DHT22;32509;47.750;-3.396;2023-06-14T04:42:14;19.20;99.90
46758;DHT22;32509;47.750;-3.396;2023-06-14T04:44:43;19.10;99.90
46758;DHT22;32509;47.750;-3.396;2023-06-14T04:47:12;19.20;99.90
46758;DHT22;32509;47.750;-3.396;2023-06-14T04:49:38;19.10;99.90
46758;DHT22;32509;47.750;-3.396;2023-06-14T04:52:05;19.10;99.90
46758;DHT22;32509;47.750;-3.396;2023-06-14T04:54:31;19.10;99.90
46758;DHT22;32509;47.750;-3.396;2023-06-14T04:56:58;19.10;99.90
46758;DHT22;32509;47.750;-3.396;2023-06-14T04:59:24;19.10;99.90
46758;DHT22;32509;47.750;-3.396;2023-06-14T05:01:50;19.10;99.90
46758;DHT22;32509;47.750;-3.396;2023-06-14T05:04:16;19.10;99.90
46758;DHT22;32509;47.750;-3.396;2023-06-14T05:06:43;19.10;99.90
46758;DHT22;32509;47.750;-3.396;2023-06-14T05:09:15;19.10;99.90
46758;DHT22;32509;47.750;-3.396;2023-06-14T05:11:42;19.10;99.90
46758;DHT22;32509;47.750;-3.396;2023-06-14T05:14:12;19.10;99.90
46758;DHT22;32509;47.750;-3.396;2023-06-14T05:16:38;19.10;99.90
46758;DHT22;32509;47.750;-3.396;2023-06-14T05:19:04;19.10;99.90
46758;DHT22;32509;47.750;-3.396;2023-06-14T05:21:31;19.10;99.90
46758;DHT22;32509;47.750;-3.396;2023-06-14T05:23:59;19.10;99.90
46758;DHT22;32509;47.750;-3.396;2023-06-14T05:26:25;19.10;99.90
46758;DHT22;32509;47.750;-3.396;2023-06-14T05:28:54;19.10;99.90
46758;DHT22;32509;47.750;-3.396;2023-06-14T05:31:22;19.10;99.90
46758;DHT22;32509;47.750;-3.396;2023-06-14T05:33:48;19.10;99.90
46758;DHT22;32509;47.750;-3.396;2023-06-14T05:36:14;19.10;99.90
46758;DHT22;32509;47.750;-3.396;2023-06-14T05:38:40;19.10;99.90
46758;DHT22;32509;47.750;-3.396;2023-06-14T05:41:06;19.10;99.90
46758;DHT22;32509;47.750;-3.396;2023-06-14T05:43:31;19.10;99.90
46758;DHT22;32509;47.750;-3.396;2023-06-14T05:45:57;19.10;99.90
46758;DHT22;32509;47.750;-3.396;2023-06-14T05:48:23;19.10;99.90
46758;DHT22;32509;47.750;-3.396;2023-06-14T05:50:48;19.10;99.90
46758;DHT22;32509;47.750;-3.396;2023-06-14T05:53:14;19.10;99.90
46758;DHT22;32509;47.750;-3.396;2023-06-14T05:55:41;19.20;99.90
46758;DHT22;32509;47.750;-3.396;2023-06-14T05:58:07;19.20;99.90
46758;DHT22;32509;47.750;-3.396;2023-06-14T06:00:33;19.20;99.90
46758;DHT22;32509;47.750;-3.396;2023-06-14T06:02:59;19.20;99.90
46758;DHT22;32509;47.750;-3.396;2023-06-14T06:05:24;19.20;99.90
46758;DHT22;32509;47.750;-3.396;2023-06-14T06:07:51;19.20;99.90
46758;DHT22;32509;47.750;-3.396;2023-06-14T06:10:17;19.20;99.90
46758;DHT22;32509;47.750;-3.396;2023-06-14T06:12:43;19.20;99.90
46758;DHT22;32509;47.750;-3.396;2023-06-14T06:15:09;19.30;99.90
46758;DHT22;32509;47.750;-3.396;2023-06-14T06:17:38;19.30;99.90
46758;DHT22;32509;47.750;-3.396;2023-06-14T06:20:05;19.30;99.90
46758;DHT22;32509;47.750;-3.396;2023-06-14T06:22:34;19.30;99.90
46758;DHT22;32509;47.750;-3.396;2023-06-14T06:25:00;19.30;99.90
46758;DHT22;32509;47.750;-3.396;2023-06-14T06:27:26;19.30;99.90
46758;DHT22;32509;47.750;-3.396;2023-06-14T06:29:51;19.30;99.90
46758;DHT22;32509;47.750;-3.396;2023-06-14T06:32:17;19.30;99.90
46758;DHT22;32509;47.750;-3.396;2023-06-14T06:34:43;19.30;99.90
46758;DHT22;32509;47.750;-3.396;2023-06-14T06:37:09;19.40;99.90
46758;DHT22;32509;47.750;-3.396;2023-06-14T06:39:35;19.40;99.90
46758;DHT22;32509;47.750;-3.396;2023-06-14T06:42:01;19.40;99.90
46758;DHT22;32509;47.750;-3.396;2023-06-14T06:44:27;19.40;99.90
46758;DHT22;32509;47.750;-3.396;2023-06-14T06:46:54;19.40;99.90
46758;DHT22;32509;47.750;-3.396;2023-06-14T06:49:20;19.40;99.90
46758;DHT22;32509;47.750;-3.396;2023-06-14T06:52:00;19.50;99.90
46758;DHT22;32509;47.750;-3.396;2023-06-14T06:54:27;19.40;99.90
46758;DHT22;32509;47.750;-3.396;2023-06-14T06:56:53;19.40;99.90
46758;DHT22;32509;47.750;-3.396;2023-06-14T06:59:19;19.40;99.90
46758;DHT22;32509;47.750;-3.396;2023-06-14T07:01:45;19.40;99.90
46758;DHT22;32509;47.750;-3.396;2023-06-14T07:04:12;19.50;99.90
46758;DHT22;32509;47.750;-3.396;2023-06-14T07:06:38;19.50;99.90
46758;DHT22;32509;47.750;-3.396;2023-06-14T07:09:04;19.50;99.90
46758;DHT22;32509;47.750;-3.396;2023-06-14T07:11:34;19.50;99.90
46758;DHT22;32509;47.750;-3.396;2023-06-14T07:14:00;19.60;99.90
46758;DHT22;32509;47.750;-3.396;2023-06-14T07:16:26;19.60;99.90
46758;DHT22;32509;47.750;-3.396;2023-06-14T07:18:52;19.60;99.90
46758;DHT22;32509;47.750;-3.396;2023-06-14T07:21:18;19.60;99.90
46758;DHT22;32509;47.750;-3.396;2023-06-14T07:23:43;19.60;99.90
46758;DHT22;32509;47.750;-3.396;2023-06-14T07:26:09;19.70;99.90
46758;DHT22;32509;47.750;-3.396;2023-06-14T07:28:35;19.70;99.90
46758;DHT22;32509;47.750;-3.396;2023-06-14T07:31:01;19.70;99.90
46758;DHT22;32509;47.750;-3.396;2023-06-14T07:33:28;19.80;99.90
46758;DHT22;32509;47.750;-3.396;2023-06-14T07:35:53;19.80;99.90
46758;DHT22;32509;47.750;-3.396;2023-06-14T07:38:19;19.90;99.90
46758;DHT22;32509;47.750;-3.396;2023-06-14T11:01:36;21.80;99.90
46758;DHT22;32509;47.750;-3.396;2023-06-14T11:04:10;21.90;99.90
46758;DHT22;32509;47.750;-3.396;2023-06-14T11:12:10;22.30;99.90
46758;DHT22;32509;47.750;-3.396;2023-06-14T11:14:39;22.40;99.90
46758;DHT22;32509;47.750;-3.396;2023-06-14T11:17:05;22.50;99.90
46758;DHT22;32509;47.750;-3.396;2023-06-14T11:19:31;22.50;99.90
46758;DHT22;32509;47.750;-3.396;2023-06-14T11:21:57;22.50;99.90
46758;DHT22;32509;47.750;-3.396;2023-06-14T11:24:24;22.50;99.90
46758;DHT22;32509;47.750;-3.396;2023-06-14T11:26:50;22.60;99.90
46758;DHT22;32509;47.750;-3.396;2023-06-14T11:29:16;22.70;99.90
46758;DHT22;32509;47.750;-3.396;2023-06-14T11:31:46;22.80;99.90
46758;DHT22;32509;47.750;-3.396;2023-06-14T11:34:12;22.70;99.90
46758;DHT22;32509;47.750;-3.396;2023-06-14T11:36:38;22.80;99.90
46758;DHT22;32509;47.750;-3.396;2023-06-14T11:39:06;22.80;99.90
46758;DHT22;32509;47.750;-3.396;2023-06-14T11:41:38;22.90;99.90
46758;DHT22;32509;47.750;-3.396;2023-06-14T11:44:05;22.90;99.90
46758;DHT22;32509;47.750;-3.396;2023-06-14T11:46:31;22.90;99.90
46758;DHT22;32509;47.750;-3.396;2023-06-14T11:48:57;22.90;99.90
46758;DHT22;32509;47.750;-3.396;2023-06-14T11:51:23;22.90;99.90
46758;DHT22;32509;47.750;-3.396;2023-06-14T11:53:49;22.80;99.90
46758;DHT22;32509;47.750;-3.396;2023-06-14T11:56:15;22.80;99.90
46758;DHT22;32509;47.750;-3.396;2023-06-14T11:58:43;22.80;99.90
46758;DHT22;32509;47.750;-3.396;2023-06-14T12:01:09;22.80;99.90
46758;DHT22;32509;47.750;-3.396;2023-06-14T12:03:35;22.80;99.90
46758;DHT22;32509;47.750;-3.396;2023-06-14T12:06:05;22.90;99.90
46758;DHT22;32509;47.750;-3.396;2023-06-14T12:08:36;22.90;99.90
46758;DHT22;32509;47.750;-3.396;2023-06-14T12:11:06;22.90;99.90
46758;DHT22;32509;47.750;-3.396;2023-06-14T12:13:34;22.90;99.90
46758;DHT22;32509;47.750;-3.396;2023-06-14T12:15:59;23.00;99.90
46758;DHT22;32509;47.750;-3.396;2023-06-14T12:18:37;23.00;99.90
46758;DHT22;32509;47.750;-3.396;2023-06-14T12:21:05;23.00;99.90
46758;DHT22;32509;47.750;-3.396;2023-06-14T12:23:48;23.10;99.90
46758;DHT22;32509;47.750;-3.396;2023-06-14T12:26:15;23.10;99.90
46758;DHT22;32509;47.750;-3.396;2023-06-14T12:28:42;23.00;99.90
46758;DHT22;32509;47.750;-3.396;2023-06-14T12:31:10;23.10;99.90
46758;DHT22;32509;47.750;-3.396;2023-06-14T12:33:37;23.10;99.90
46758;DHT22;32509;47.750;-3.396;2023-06-14T12:36:07;23.20;99.90
46758;DHT22;32509;47.750;-3.396;2023-06-14T12:38:33;23.30;99.90
46758;DHT22;32509;47.750;-3.396;2023-06-14T12:40:59;23.30;99.90
46758;DHT22;32509;47.750;-3.396;2023-06-14T12:43:25;23.30;99.90
46758;DHT22;32509;47.750;-3.396;2023-06-14T12:45:51;23.40;99.90
46758;DHT22;32509;47.750;-3.396;2023-06-14T12:48:17;23.40;99.90
46758;DHT22;32509;47.750;-3.396;2023-06-14T12:50:43;23.40;99.90
46758;DHT22;32509;47.750;-3.396;2023-06-14T12:53:09;23.40;99.90
46758;DHT22;32509;47.750;-3.396;2023-06-14T12:55:34;23.40;99.90
46758;DHT22;32509;47.750;-3.396;2023-06-14T12:58:00;23.30;99.90
46758;DHT22;32509;47.750;-3.396;2023-06-14T13:00:26;23.30;99.90
46758;DHT22;32509;47.750;-3.396;2023-06-14T13:02:52;23.20;99.90
46758;DHT22;32509;47.750;-3.396;2023-06-14T13:05:19;23.30;99.90
46758;DHT22;32509;47.750;-3.396;2023-06-14T13:07:44;23.20;99.90
46758;DHT22;32509;47.750;-3.396;2023-06-14T13:10:10;23.20;99.90
46758;DHT22;32509;47.750;-3.396;2023-06-14T13:12:36;23.10;99.90
46758;DHT22;32509;47.750;-3.396;2023-06-14T13:15:02;23.10;99.90
46758;DHT22;32509;47.750;-3.396;2023-06-14T13:17:28;23.10;99.90
46758;DHT22;32509;47.750;-3.396;2023-06-14T13:19:53;23.20;99.90
46758;DHT22;32509;47.750;-3.396;2023-06-14T13:22:19;23.20;99.90
46758;DHT22;32509;47.750;-3.396;2023-06-14T13:24:45;23.20;99.90
46758;DHT22;32509;47.750;-3.396;2023-06-14T13:27:11;23.30;99.90
46758;DHT22;32509;47.750;-3.396;2023-06-14T13:29:38;23.30;99.90
46758;DHT22;32509;47.750;-3.396;2023-06-14T13:32:04;23.30;99.90
46758;DHT22;32509;47.750;-3.396;2023-06-14T13:34:30;23.30;99.90
46758;DHT22;32509;47.750;-3.396;2023-06-14T13:36:56;23.30;99.90
46758;DHT22;32509;47.750;-3.396;2023-06-14T13:39:22;23.30;99.90
46758;DHT22;32509;47.750;-3.396;2023-06-14T13:41:48;23.30;99.90
46758;DHT22;32509;47.750;-3.396;2023-06-14T13:44:13;23.30;99.90
46758;DHT22;32509;47.750;-3.396;2023-06-14T13:46:39;23.30;99.90
46758;DHT22;32509;47.750;-3.396;2023-06-14T13:49:05;23.20;99.90
46758;DHT22;32509;47.750;-3.396;2023-06-14T13:51:31;23.20;99.90
46758;DHT22;32509;47.750;-3.396;2023-06-14T13:53:58;23.20;99.90
46758;DHT22;32509;47.750;-3.396;2023-06-14T13:56:24;23.20;99.90
46758;DHT22;32509;47.750;-3.396;2023-06-14T13:58:50;23.20;99.90
46758;DHT22;32509;47.750;-3.396;2023-06-14T14:01:17;23.20;99.90
46758;DHT22;32509;47.750;-3.396;2023-06-14T14:03:45;23.20;99.90
46758;DHT22;32509;47.750;-3.396;2023-06-14T14:06:11;23.30;99.90
46758;DHT22;32509;47.750;-3.396;2023-06-14T14:08:37;23.30;99.90
46758;DHT22;32509;47.750;-3.396;2023-06-14T14:11:05;23.30;99.90
46758;DHT22;32509;47.750;-3.396;2023-06-14T14:13:31;23.20;99.90
46758;DHT22;32509;47.750;-3.396;2023-06-14T14:15:57;23.20;99.90
46758;DHT22;32509;47.750;-3.396;2023-06-14T14:18:23;23.10;99.90
46758;DHT22;32509;47.750;-3.396;2023-06-14T14:20:48;23.00;99.90
46758;DHT22;32509;47.750;-3.396;2023-06-14T14:23:14;22.90;99.90
46758;DHT22;32509;47.750;-3.396;2023-06-14T14:25:40;22.80;99.90
46758;DHT22;32509;47.750;-3.396;2023-06-14T14:28:06;22.70;99.90
46758;DHT22;32509;47.750;-3.396;2023-06-14T14:30:32;22.70;99.90
46758;DHT22;32509;47.750;-3.396;2023-06-14T14:32:58;22.60;99.90
46758;DHT22;32509;47.750;-3.396;2023-06-14T14:35:24;22.60;99.90
46758;DHT22;32509;47.750;-3.396;2023-06-14T14:37:51;22.70;99.90
46758;DHT22;32509;47.750;-3.396;2023-06-14T14:40:17;22.60;99.90
46758;DHT22;32509;47.750;-3.396;2023-06-14T14:42:43;22.60;99.90
46758;DHT22;32509;47.750;-3.396;2023-06-14T14:45:09;22.60;99.90
46758;DHT22;32509;47.750;-3.396;2023-06-14T14:47:35;22.60;99.90
46758;DHT22;32509;47.750;-3.396;2023-06-14T14:50:00;22.60;99.90
46758;DHT22;32509;47.750;-3.396;2023-06-14T14:52:26;22.60;99.90
46758;DHT22;32509;47.750;-3.396;2023-06-14T14:54:52;22.60;99.90
46758;DHT22;32509;47.750;-3.396;2023-06-14T14:57:19;22.50;99.90
46758;DHT22;32509;47.750;-3.396;2023-06-14T14:59:45;22.50;99.90
46758;DHT22;32509;47.750;-3.396;2023-06-14T15:02:11;22.50;99.90
46758;DHT22;32509;47.750;-3.396;2023-06-14T15:04:37;22.50;99.90
46758;DHT22;32509;47.750;-3.396;2023-06-14T15:07:03;22.50;99.90
46758;DHT22;32509;47.750;-3.396;2023-06-14T15:09:29;22.50;99.90
46758;DHT22;32509;47.750;-3.396;2023-06-14T15:11:55;22.50;99.90
46758;DHT22;32509;47.750;-3.396;2023-06-14T15:14:20;22.50;99.90
46758;DHT22;32509;47.750;-3.396;2023-06-14T15:16:46;22.50;99.90
46758;DHT22;32509;47.750;-3.396;2023-06-14T15:19:12;22.50;99.90
46758;DHT22;32509;47.750;-3.396;2023-06-14T15:21:38;22.50;99.90
46758;DHT22;32509;47.750;-3.396;2023-06-14T15:24:03;22.50;99.90
46758;DHT22;32509;47.750;-3.396;2023-06-14T15:26:29;22.50;99.90
46758;DHT22;32509;47.750;-3.396;2023-06-14T15:28:55;22.40;99.90
46758;DHT22;32509;47.750;-3.396;2023-06-14T15:31:21;22.40;99.90
46758;DHT22;32509;47.750;-3.396;2023-06-14T15:33:49;22.40;99.90
46758;DHT22;32509;47.750;-3.396;2023-06-14T15:36:14;22.40;99.90
46758;DHT22;32509;47.750;-3.396;2023-06-14T15:38:40;22.40;99.90
46758;DHT22;32509;47.750;-3.396;2023-06-14T15:41:06;22.40;99.90
46758;DHT22;32509;47.750;-3.396;2023-06-14T15:43:33;22.40;99.90
46758;DHT22;32509;47.750;-3.396;2023-06-14T15:45:58;22.40;99.90
46758;DHT22;32509;47.750;-3.396;2023-06-14T15:48:24;22.40;99.90
46758;DHT22;32509;47.750;-3.396;2023-06-14T15:50:50;22.40;99.90
46758;DHT22;32509;47.750;-3.396;2023-06-14T15:53:15;22.30;99.90
46758;DHT22;32509;47.750;-3.396;2023-06-14T15:55:41;22.30;99.90
46758;DHT22;32509;47.750;-3.396;2023-06-14T15:58:07;22.30;99.90
46758;DHT22;32509;47.750;-3.396;2023-06-14T16:00:36;22.30;99.90
46758;DHT22;32509;47.750;-3.396;2023-06-14T16:03:02;22.30;99.90
46758;DHT22;32509;47.750;-3.396;2023-06-14T16:05:28;22.20;99.90
46758;DHT22;32509;47.750;-3.396;2023-06-14T16:07:54;22.30;99.90
46758;DHT22;32509;47.750;-3.396;2023-06-14T16:10:20;22.30;99.90
46758;DHT22;32509;47.750;-3.396;2023-06-14T16:12:45;22.30;99.90
46758;DHT22;32509;47.750;-3.396;2023-06-14T16:15:11;22.30;99.90
46758;DHT22;32509;47.750;-3.396;2023-06-14T16:17:37;22.30;99.90
46758;DHT22;32509;47.750;-3.396;2023-06-14T16:20:03;22.30;99.90
46758;DHT22;32509;47.750;-3.396;2023-06-14T16:22:29;22.40;99.90
46758;DHT22;32509;47.750;-3.396;2023-06-14T16:24:55;22.40;99.90
46758;DHT22;32509;47.750;-3.396;2023-06-14T16:27:20;22.30;99.90
46758;DHT22;32509;47.750;-3.396;2023-06-14T16:29:47;22.30;99.90
46758;DHT22;32509;47.750;-3.396;2023-06-14T16:32:13;22.30;99.90
46758;DHT22;32509;47.750;-3.396;2023-06-14T16:34:39;22.30;99.90
46758;DHT22;32509;47.750;-3.396;2023-06-14T16:37:05;22.30;99.90
46758;DHT22;32509;47.750;-3.396;2023-06-14T16:39:30;22.30;99.90
46758;DHT22;32509;47.750;-3.396;2023-06-14T16:41:56;22.30;99.90
46758;DHT22;32509;47.750;-3.396;2023-06-14T16:44:22;22.30;99.90
46758;DHT22;32509;47.750;-3.396;2023-06-14T16:46:48;22.30;99.90
46758;DHT22;32509;47.750;-3.396;2023-06-14T16:49:14;22.40;99.90
46758;DHT22;32509;47.750;-3.396;2023-06-14T16:51:39;22.40;99.90
46758;DHT22;32509;47.750;-3.396;2023-06-14T16:54:05;22.30;99.90
46758;DHT22;32509;47.750;-3.396;2023-06-14T16:56:31;22.30;99.90
46758;DHT22;32509;47.750;-3.396;2023-06-14T16:58:57;22.20;99.90
46758;DHT22;32509;47.750;-3.396;2023-06-14T17:01:24;22.20;99.90
46758;DHT22;32509;47.750;-3.396;2023-06-14T17:03:53;22.20;99.90
46758;DHT22;32509;47.750;-3.396;2023-06-14T17:06:19;22.20;99.90
46758;DHT22;32509;47.750;-3.396;2023-06-14T17:08:47;22.20;99.90
46758;DHT22;32509;47.750;-3.396;2023-06-14T17:11:13;22.10;99.90
46758;DHT22;32509;47.750;-3.396;2023-06-14T17:13:40;22.10;99.90
46758;DHT22;32509;47.750;-3.396;2023-06-14T17:16:06;22.00;99.90
46758;DHT22;32509;47.750;-3.396;2023-06-14T17:18:34;22.10;99.90
46758;DHT22;32509;47.750;-3.396;2023-06-14T17:21:00;22.10;99.90
46758;DHT22;32509;47.750;-3.396;2023-06-14T17:23:26;22.10;99.90
46758;DHT22;32509;47.750;-3.396;2023-06-14T17:25:52;22.10;99.90
46758;DHT22;32509;47.750;-3.396;2023-06-14T17:28:17;22.10;99.90
46758;DHT22;32509;47.750;-3.396;2023-06-14T17:30:43;22.10;99.90
46758;DHT22;32509;47.750;-3.396;2023-06-14T17:33:09;22.20;99.90
46758;DHT22;32509;47.750;-3.396;2023-06-14T17:35:35;22.20;99.90
46758;DHT22;32509;47.750;-3.396;2023-06-14T17:38:04;22.20;99.90
46758;DHT22;32509;47.750;-3.396;2023-06-14T17:40:31;22.10;99.90
46758;DHT22;32509;47.750;-3.396;2023-06-14T17:42:58;22.10;99.90
46758;DHT22;32509;47.750;-3.396;2023-06-14T17:45:24;22.10;99.90
46758;DHT22;32509;47.750;-3.396;2023-06-14T17:47:50;22.10;99.90
46758;DHT22;32509;47.750;-3.396;2023-06-14T17:50:15;22.00;99.90
46758;DHT22;32509;47.750;-3.396;2023-06-14T17:52:41;22.00;99.90
46758;DHT22;32509;47.750;-3.396;2023-06-14T17:55:08;21.90;99.90
46758;DHT22;32509;47.750;-3.396;2023-06-14T17:57:33;21.90;99.90
46758;DHT22;32509;47.750;-3.396;2023-06-14T17:59:59;21.90;99.90
46758;DHT22;32509;47.750;-3.396;2023-06-14T18:02:25;21.90;99.90
46758;DHT22;32509;47.750;-3.396;2023-06-14T18:04:51;21.90;99.90
46758;DHT22;32509;47.750;-3.396;2023-06-14T18:07:18;21.90;99.90
46758;DHT22;32509;47.750;-3.396;2023-06-14T18:09:44;21.90;99.90
46758;DHT22;32509;47.750;-3.396;2023-06-14T18:12:11;21.90;99.90
46758;DHT22;32509;47.750;-3.396;2023-06-14T18:14:37;21.90;99.90
46758;DHT22;32509;47.750;-3.396;2023-06-14T18:17:03;21.90;99.90
46758;DHT22;32509;47.750;-3.396;2023-06-14T18:19:29;21.90;99.90
46758;DHT22;32509;47.750;-3.396;2023-06-14T18:21:55;21.80;99.90
46758;DHT22;32509;47.750;-3.396;2023-06-14T18:24:22;21.80;99.90
46758;DHT22;32509;47.750;-3.396;2023-06-14T18:26:48;21.80;99.90
46758;DHT22;32509;47.750;-3.396;2023-06-14T18:29:14;21.80;99.90
46758;DHT22;32509;47.750;-3.396;2023-06-14T18:31:41;21.70;99.90
46758;DHT22;32509;47.750;-3.396;2023-06-14T18:34:07;21.80;99.90
46758;DHT22;32509;47.750;-3.396;2023-06-14T18:36:36;21.80;99.90
46758;DHT22;32509;47.750;-3.396;2023-06-14T18:39:04;21.80;99.90
46758;DHT22;32509;47.750;-3.396;2023-06-14T18:41:30;21.80;99.90
46758;DHT22;32509;47.750;-3.396;2023-06-14T18:43:56;21.80;99.90